Time;durP1;ratioP1;P1;durP2;ratioP2;P2;SDS_P1;SDS_P2;PMS_P1;PMS_P2;Temp;Humidity;BMP_temperature;BMP_pressure;BME280_temperature;BME280_humidity;BME280_pressure;Samples;Min_cycle;Max_cycle;Signal;HPM_P1;HPM_P2
2021/03/19 00:01:26;;;;;;;29.37;15.53;;;0.40;99.90;;;;;;4968522;28;20477;-61
2021/03/19 00:03:52;;;;;;;26.73;14.60;;;0.40;99.90;;;;;;4971021;28;20207;-60
2021/03/19 00:06:18;;;;;;;27.23;14.33;;;0.40;99.90;;;;;;4970021;28;20558;-60
2021/03/19 00:08:44;;;;;;;25.23;14.00;;;0.40;99.90;;;;;;4990560;28;20191;-61
2021/03/19 00:11:10;;;;;;;29.70;13.97;;;0.30;99.90;;;;;;4981745;28;20890;-60
2021/03/19 00:13:36;;;;;;;24.50;12.57;;;0.40;99.90;;;;;;4987943;28;20183;-60
2021/03/19 00:16:02;;;;;;;21.53;12.00;;;0.30;99.90;;;;;;4990143;28;20512;-60
2021/03/19 00:18:28;;;;;;;25.80;13.20;;;0.30;99.90;;;;;;4987909;28;20606;-60
2021/03/19 00:20:54;;;;;;;18.50;11.50;;;0.40;99.90;;;;;;4972529;28;22300;-59
2021/03/19 00:23:20;;;;;;;20.33;12.40;;;0.30;99.90;;;;;;4971741;28;20458;-60
2021/03/19 00:25:46;;;;;;;23.43;11.00;;;0.30;99.90;;;;;;4988788;28;20193;-60
2021/03/19 00:28:15;;;;;;;18.10;11.83;;;0.40;99.90;;;;;;4989615;28;20422;-60
2021/03/19 00:30:46;;;;;;;18.73;10.80;;;0.40;99.90;;;;;;4990573;28;20469;-60
2021/03/19 00:33:13;;;;;;;21.40;11.37;;;0.30;99.90;;;;;;4991062;28;20479;-60
2021/03/19 00:35:39;;;;;;;19.20;10.77;;;0.40;99.90;;;;;;4988532;28;20436;-60
2021/03/19 00:38:05;;;;;;;21.93;10.00;;;0.40;99.90;;;;;;4989297;28;21008;-60
2021/03/19 00:40:32;;;;;;;17.07;10.40;;;0.30;99.90;;;;;;4993164;28;20469;-60
2021/03/19 00:42:58;;;;;;;16.67;10.27;;;0.30;99.90;;;;;;4989339;28;20532;-61
2021/03/19 00:45:25;;;;;;;13.50;9.73;;;0.30;99.90;;;;;;4991827;28;20449;-60
2021/03/19 00:47:53;;;;;;;17.20;10.13;;;0.40;99.90;;;;;;4990067;28;20453;-60
2021/03/19 00:50:39;;;;;;;16.93;10.50;;;0.30;99.90;;;;;;4987269;28;20480;-60
2021/03/19 00:53:06;;;;;;;15.53;10.10;;;0.30;99.90;;;;;;4985296;28;20482;-60
2021/03/19 00:55:33;;;;;;;21.13;10.60;;;0.30;99.90;;;;;;4990722;28;20434;-60
2021/03/19 00:57:59;;;;;;;19.20;10.27;;;0.30;99.90;;;;;;4992270;28;20909;-60
2021/03/19 01:00:29;;;;;;;15.80;9.73;;;0.30;99.90;;;;;;4995082;28;20435;-60
2021/03/19 01:02:55;;;;;;;15.70;9.80;;;0.30;99.90;;;;;;4976091;28;20543;-60
2021/03/19 01:05:35;;;;;;;16.27;9.60;;;0.30;99.90;;;;;;4971056;28;20451;-60
2021/03/19 01:08:03;;;;;;;20.33;9.97;;;0.30;99.90;;;;;;4989577;28;20421;-60
2021/03/19 01:10:32;;;;;;;18.53;9.63;;;0.20;99.90;;;;;;4989703;28;20576;-60
2021/03/19 01:12:58;;;;;;;18.47;9.80;;;0.20;99.90;;;;;;4988452;28;21350;-60
2021/03/19 01:15:25;;;;;;;16.57;10.20;;;0.20;99.90;;;;;;4992485;28;20472;-60
2021/03/19 01:17:51;;;;;;;17.50;9.80;;;0.20;99.90;;;;;;4992814;28;20444;-60
2021/03/19 01:20:19;;;;;;;15.87;8.30;;;0.20;99.90;;;;;;4991773;28;20981;-60
2021/03/19 01:22:44;;;;;;;18.00;10.67;;;0.20;99.90;;;;;;4991367;28;20455;-60
2021/03/19 01:25:14;;;;;;;14.90;8.50;;;0.20;99.90;;;;;;4987809;28;20522;-61
2021/03/19 01:27:40;;;;;;;16.10;9.20;;;0.20;99.90;;;;;;4984521;28;20187;-60
2021/03/19 01:30:07;;;;;;;14.20;8.50;;;0.10;99.90;;;;;;4988412;28;20457;-60
2021/03/19 01:32:33;;;;;;;13.20;8.20;;;0.10;99.90;;;;;;4986928;28;20214;-60
2021/03/19 01:34:59;;;;;;;10.13;6.43;;;0.10;99.90;;;;;;4991632;28;20878;-60
2021/03/19 01:37:28;;;;;;;12.90;7.80;;;0.10;99.90;;;;;;4979058;28;20715;-60
2021/03/19 01:39:54;;;;;;;15.03;8.40;;;0.00;99.90;;;;;;4992160;28;20430;-60
2021/03/19 01:42:20;;;;;;;14.53;8.30;;;0.10;99.90;;;;;;4983556;28;20469;-60
2021/03/19 01:44:55;;;;;;;14.67;8.67;;;0.00;99.90;;;;;;4983387;28;20244;-60
2021/03/19 01:47:58;;;;;;;14.20;7.60;;;0.00;99.90;;;;;;4984437;28;20222;-61
2021/03/19 01:51:01;;;;;;;16.53;8.67;;;0.00;99.90;;;;;;4984530;28;20469;-60
2021/03/19 01:54:05;;;;;;;17.03;8.37;;;0.00;99.90;;;;;;4970602;28;20993;-61
2021/03/19 01:57:08;;;;;;;14.30;8.67;;;-0.10;99.90;;;;;;4978810;28;20845;-60
2021/03/19 02:00:12;;;;;;;14.77;8.73;;;-0.10;99.90;;;;;;4963614;28;20432;-60
2021/03/19 02:03:15;;;;;;;11.43;8.00;;;-0.10;99.90;;;;;;4981543;28;20449;-60
2021/03/19 02:06:18;;;;;;;15.83;8.60;;;-0.10;99.90;;;;;;4985297;28;20441;-61
2021/03/19 02:09:22;;;;;;;16.67;8.60;;;-0.10;99.90;;;;;;4990843;28;20429;-61
2021/03/19 02:12:25;;;;;;;15.53;9.10;;;-0.10;99.90;;;;;;4981606;28;20953;-60
2021/03/19 02:15:28;;;;;;;18.80;8.33;;;-0.20;99.90;;;;;;4983494;28;20429;-60
2021/03/19 02:18:31;;;;;;;16.90;8.20;;;-0.20;99.90;;;;;;4979898;28;20938;-60
2021/03/19 02:21:34;;;;;;;11.23;7.47;;;-0.20;99.90;;;;;;4984053;28;20936;-59
2021/03/19 02:24:37;;;;;;;12.60;8.27;;;-0.20;99.90;;;;;;4979099;28;20433;-59
2021/03/19 02:27:40;;;;;;;16.27;8.93;;;-0.30;99.90;;;;;;4977525;28;20430;-61
2021/03/19 02:30:43;;;;;;;16.60;9.10;;;-0.30;99.90;;;;;;4980293;28;20519;-60
2021/03/19 02:33:08;;;;;;;12.60;9.00;;;-0.30;99.90;;;;;;4964019;28;20482;-60
2021/03/19 02:35:54;;;;;;;13.23;8.07;;;-0.40;99.90;;;;;;4978938;28;20616;-60
2021/03/19 02:38:20;;;;;;;18.80;9.50;;;-0.40;99.90;;;;;;4985105;28;20428;-60
2021/03/19 02:40:46;;;;;;;15.80;8.57;;;-0.50;99.90;;;;;;4985668;28;20437;-60
2021/03/19 02:43:12;;;;;;;16.83;8.63;;;-0.50;99.90;;;;;;4981566;28;20489;-61
2021/03/19 02:45:38;;;;;;;13.03;8.23;;;-0.50;99.90;;;;;;4963433;28;20455;-61
2021/03/19 02:48:04;;;;;;;13.03;8.53;;;-0.50;99.90;;;;;;4980853;28;20433;-60
2021/03/19 02:50:30;;;;;;;13.97;8.60;;;-0.60;99.90;;;;;;4970904;28;20222;-60
2021/03/19 02:52:55;;;;;;;12.50;7.90;;;-0.60;99.90;;;;;;4979181;28;20977;-61
2021/03/19 02:55:21;;;;;;;15.13;8.67;;;-0.60;99.90;;;;;;4974119;28;20593;-60
2021/03/19 02:57:47;;;;;;;16.43;9.57;;;-0.70;99.90;;;;;;4964212;28;20202;-61
2021/03/19 03:00:17;;;;;;;19.23;8.97;;;-0.70;99.90;;;;;;4981459;28;20682;-60
2021/03/19 03:02:43;;;;;;;15.00;8.50;;;-0.70;99.90;;;;;;4982764;28;20197;-60
2021/03/19 03:05:10;;;;;;;13.03;8.20;;;-0.70;99.90;;;;;;4980017;28;20446;-60
2021/03/19 03:07:36;;;;;;;17.20;9.00;;;-0.80;99.90;;;;;;4978771;28;20180;-60
2021/03/19 03:10:05;;;;;;;13.83;7.73;;;-0.80;99.90;;;;;;4980153;28;22466;-60
2021/03/19 03:12:30;;;;;;;15.00;8.13;;;-0.80;99.90;;;;;;4976252;28;20213;-60
2021/03/19 03:14:56;;;;;;;12.50;8.13;;;-0.80;99.90;;;;;;4963629;28;20441;-60
2021/03/19 03:17:23;;;;;;;16.03;9.63;;;-0.80;99.90;;;;;;4956916;28;20191;-60
2021/03/19 03:19:48;;;;;;;15.00;8.57;;;-0.90;99.90;;;;;;4986580;28;21009;-60
2021/03/19 03:22:14;;;;;;;15.00;8.90;;;-0.90;99.90;;;;;;4967955;28;20537;-60
2021/03/19 03:24:40;;;;;;;15.20;7.93;;;-0.90;99.80;;;;;;4983200;28;20193;-60
2021/03/19 03:27:08;;;;;;;16.77;8.57;;;-1.00;99.70;;;;;;4984626;28;20651;-60
2021/03/19 03:29:35;;;;;;;19.50;9.17;;;-1.00;99.80;;;;;;4991188;28;20793;-60
2021/03/19 03:32:01;;;;;;;11.80;8.23;;;-1.10;99.70;;;;;;4989888;28;20967;-60
2021/03/19 03:34:26;;;;;;;13.00;7.40;;;-1.10;99.70;;;;;;4950168;28;20721;-60
2021/03/19 03:36:52;;;;;;;14.43;8.10;;;-1.20;99.90;;;;;;4970997;28;20191;-60
2021/03/19 03:39:24;;;;;;;11.33;7.07;;;-1.20;99.90;;;;;;4990130;28;20181;-60
2021/03/19 03:41:51;;;;;;;13.40;7.50;;;-1.20;99.90;;;;;;4979247;28;20839;-60
2021/03/19 03:44:17;;;;;;;11.50;7.30;;;-1.20;99.90;;;;;;4959642;28;20460;-60
2021/03/19 03:46:45;;;;;;;14.47;8.23;;;-1.20;99.90;;;;;;4977447;28;21003;-60
2021/03/19 03:49:15;;;;;;;12.57;6.80;;;-1.30;99.90;;;;;;4991861;28;20196;-60
2021/03/19 03:51:41;;;;;;;14.20;7.10;;;-1.30;99.90;;;;;;4986650;28;21278;-60
2021/03/19 03:54:07;;;;;;;11.60;6.00;;;-1.30;99.90;;;;;;4948044;28;20465;-61
2021/03/19 03:56:34;;;;;;;13.87;7.50;;;-1.30;99.90;;;;;;4978916;28;20529;-60
2021/03/19 03:59:00;;;;;;;13.47;7.50;;;-1.40;99.90;;;;;;4983283;28;20215;-60
2021/03/19 04:01:26;;;;;;;11.67;7.60;;;-1.40;99.90;;;;;;4979251;28;20444;-60
2021/03/19 04:03:52;;;;;;;13.50;7.47;;;-1.40;99.90;;;;;;4964432;28;20444;-61
2021/03/19 04:06:18;;;;;;;14.10;7.83;;;-1.40;99.90;;;;;;4983808;28;20434;-60
2021/03/19 04:08:43;;;;;;;11.83;7.50;;;-1.40;99.90;;;;;;4980501;28;20202;-61
2021/03/19 04:11:13;;;;;;;15.80;8.50;;;-1.40;99.90;;;;;;4968332;28;20442;-61
2021/03/19 04:13:39;;;;;;;14.80;8.10;;;-1.40;99.90;;;;;;4982260;28;20184;-61
2021/03/19 04:16:06;;;;;;;15.83;7.10;;;-1.30;99.90;;;;;;4977346;28;20429;-61
2021/03/19 04:18:32;;;;;;;12.47;6.90;;;-1.30;99.90;;;;;;4986999;28;21133;-65
2021/03/19 04:21:00;;;;;;;14.27;7.60;;;-1.30;99.90;;;;;;4986879;28;20570;-61
2021/03/19 04:23:28;;;;;;;13.43;6.60;;;-1.30;99.90;;;;;;4988015;28;20467;-62
2021/03/19 04:25:55;;;;;;;15.20;8.50;;;-1.40;99.90;;;;;;4984564;28;20813;-62
2021/03/19 04:28:24;;;;;;;16.60;8.07;;;-1.40;99.90;;;;;;4967752;28;20438;-61
2021/03/19 04:30:49;;;;;;;17.50;8.07;;;-1.40;99.90;;;;;;4984054;28;20456;-60
2021/03/19 04:33:22;;;;;;;12.20;7.67;;;-1.40;99.90;;;;;;4985704;28;20451;-61
2021/03/19 04:35:54;;;;;;;12.30;7.13;;;-1.40;99.90;;;;;;4987720;28;20187;-61
2021/03/19 04:38:20;;;;;;;12.13;7.60;;;-1.40;99.90;;;;;;4989991;28;20562;-61
2021/03/19 04:40:46;;;;;;;13.30;8.30;;;-1.40;99.90;;;;;;4987851;28;20528;-61
2021/03/19 04:43:14;;;;;;;13.60;7.53;;;-1.50;99.90;;;;;;4986204;28;20519;-61
2021/03/19 04:45:43;;;;;;;14.87;8.13;;;-1.50;99.90;;;;;;4983583;28;20445;-61
2021/03/19 04:48:09;;;;;;;12.93;7.97;;;-1.50;99.90;;;;;;4984839;28;20466;-61
2021/03/19 04:50:35;;;;;;;12.77;7.50;;;-1.50;99.90;;;;;;4994278;28;20965;-61
2021/03/19 04:53:02;;;;;;;17.23;8.57;;;-1.50;99.90;;;;;;4982274;28;20450;-61
2021/03/19 04:55:28;;;;;;;11.43;8.10;;;-1.50;99.90;;;;;;4995020;28;20434;-61
2021/03/19 04:57:53;;;;;;;14.17;8.70;;;-1.50;99.90;;;;;;4993592;28;20429;-61
2021/03/19 05:00:21;;;;;;;13.90;7.97;;;-1.50;99.90;;;;;;4974605;28;20909;-62
2021/03/19 05:02:49;;;;;;;13.40;8.00;;;-1.60;99.90;;;;;;4993962;28;20194;-61
2021/03/19 05:05:29;;;;;;;14.63;8.60;;;-1.60;99.90;;;;;;4972090;28;20541;-61
2021/03/19 05:07:55;;;;;;;13.53;7.60;;;-1.60;99.90;;;;;;4990720;28;20440;-61
2021/03/19 05:10:27;;;;;;;13.63;8.13;;;-1.60;99.90;;;;;;4990934;28;20461;-60
2021/03/19 05:12:54;;;;;;;16.07;8.90;;;-1.60;99.90;;;;;;4969055;28;20571;-61
2021/03/19 05:15:22;;;;;;;15.10;8.33;;;-1.60;99.90;;;;;;4985275;28;20431;-61
2021/03/19 05:17:47;;;;;;;16.97;8.50;;;-1.60;99.90;;;;;;4971096;28;20433;-60
2021/03/19 05:20:14;;;;;;;15.17;8.77;;;-1.50;99.90;;;;;;4990513;28;20436;-61
2021/03/19 05:22:40;;;;;;;16.20;8.53;;;-1.60;99.90;;;;;;4974163;28;20201;-61
2021/03/19 05:25:09;;;;;;;14.30;8.60;;;-1.60;99.90;;;;;;4976257;28;20453;-61
2021/03/19 05:27:35;;;;;;;20.77;7.87;;;-1.50;99.90;;;;;;4965526;28;20492;-61
2021/03/19 05:30:01;;;;;;;14.07;7.90;;;-1.50;99.90;;;;;;4983886;28;20862;-61
2021/03/19 05:32:27;;;;;;;13.73;8.53;;;-1.50;99.90;;;;;;4968423;28;20461;-61
2021/03/19 05:34:53;;;;;;;19.37;8.50;;;-1.50;99.90;;;;;;4974184;28;20496;-60
2021/03/19 05:37:20;;;;;;;15.37;9.27;;;-1.50;99.90;;;;;;4990513;28;20442;-60
2021/03/19 05:39:46;;;;;;;13.63;8.20;;;-1.50;99.90;;;;;;4992538;28;20520;-61
2021/03/19 05:42:21;;;;;;;16.20;8.43;;;-1.50;99.90;;;;;;4988229;28;20494;-61
2021/03/19 05:44:54;;;;;;;15.83;9.23;;;-1.50;99.90;;;;;;4992675;28;20465;-60
2021/03/19 05:47:20;;;;;;;14.73;7.10;;;-1.60;99.90;;;;;;4989940;28;20873;-61
2021/03/19 05:49:59;;;;;;;13.50;7.87;;;-1.50;99.90;;;;;;4991616;28;20457;-61
2021/03/19 05:52:32;;;;;;;14.27;7.13;;;-1.50;99.90;;;;;;4987936;28;20454;-60
2021/03/19 05:54:57;;;;;;;12.67;8.00;;;-1.50;99.90;;;;;;4987832;28;20428;-60
2021/03/19 05:57:32;;;;;;;15.60;8.43;;;-1.40;99.90;;;;;;4984954;28;20459;-62
2021/03/19 06:00:00;;;;;;;13.83;7.90;;;-1.50;99.70;;;;;;4991101;28;20203;-65
2021/03/19 06:02:31;;;;;;;14.40;7.80;;;-1.50;99.70;;;;;;4984397;28;20800;-61
2021/03/19 06:05:13;;;;;;;17.43;9.07;;;-1.40;99.70;;;;;;4985720;28;21101;-62
2021/03/19 06:07:41;;;;;;;16.23;8.63;;;-1.40;99.80;;;;;;4974702;28;20484;-62
2021/03/19 06:10:29;;;;;;;22.37;10.77;;;-1.40;99.90;;;;;;4987625;28;20556;-61
2021/03/19 06:13:04;;;;;;;27.37;13.33;;;-1.40;99.90;;;;;;4992628;28;20484;-61
2021/03/19 06:15:32;;;;;;;40.60;16.83;;;-1.30;99.90;;;;;;4990362;28;20428;-61
2021/03/19 06:18:01;;;;;;;44.53;17.67;;;-1.30;99.90;;;;;;4980438;28;20425;-61
2021/03/19 06:20:28;;;;;;;44.40;16.60;;;-1.20;99.90;;;;;;4992462;28;20442;-62
2021/03/19 06:23:06;;;;;;;35.33;14.67;;;-1.10;99.90;;;;;;4991564;28;20843;-60
2021/03/19 06:25:43;;;;;;;50.47;18.63;;;-1.10;99.90;;;;;;4998076;28;20524;-61
2021/03/19 06:28:28;;;;;;;46.47;16.97;;;-1.10;99.90;;;;;;4992326;28;20437;-59
2021/03/19 06:31:31;;;;;;;43.03;17.00;;;-1.00;99.90;;;;;;4993049;28;20554;-62
2021/03/19 06:34:08;;;;;;;49.90;19.07;;;-1.00;99.90;;;;;;4985010;28;20501;-61
2021/03/19 06:36:51;;;;;;;53.53;20.23;;;-0.90;99.90;;;;;;5009129;28;20427;-63
2021/03/19 06:39:26;;;;;;;49.57;18.57;;;-0.90;99.90;;;;;;4991503;28;20530;-61
2021/03/19 06:42:27;;;;;;;51.40;20.40;;;-0.90;99.80;;;;;;4986646;28;20510;-65
2021/03/19 06:45:20;;;;;;;50.63;19.63;;;-0.90;99.70;;;;;;4985249;28;20432;-63
2021/03/19 06:47:49;;;;;;;57.30;22.30;;;-0.80;99.80;;;;;;4998050;28;20451;-62
2021/03/19 06:50:24;;;;;;;57.23;22.77;;;-0.70;99.70;;;;;;4991179;28;20446;-60
2021/03/19 06:52:51;;;;;;;59.40;23.00;;;-0.60;99.60;;;;;;4988420;28;20450;-62
2021/03/19 06:55:39;;;;;;;59.80;22.20;;;-0.60;99.60;;;;;;4970395;28;20441;-61
2021/03/19 06:58:05;;;;;;;40.50;18.53;;;-0.50;99.60;;;;;;4984223;28;20448;-63
2021/03/19 07:00:42;;;;;;;52.13;20.00;;;-0.40;99.30;;;;;;4984732;28;20519;-61
2021/03/19 07:03:29;;;;;;;54.00;21.30;;;-0.30;99.20;;;;;;4977886;28;20291;-61
2021/03/19 07:06:22;;;;;;;45.63;19.20;;;-0.30;98.90;;;;;;4975063;28;20925;-63
2021/03/19 07:08:51;;;;;;;44.37;18.47;;;-0.20;98.80;;;;;;4988777;28;20500;-61
2021/03/19 07:11:48;;;;;;;56.37;19.93;;;-0.10;98.70;;;;;;4976416;28;20438;-62
2021/03/19 07:14:32;;;;;;;52.97;21.00;;;-0.10;98.20;;;;;;4990065;28;20888;-64
2021/03/19 07:17:16;;;;;;;42.20;19.37;;;0.00;98.10;;;;;;4993798;28;20456;-63
2021/03/19 07:20:09;;;;;;;39.97;19.10;;;0.00;98.10;;;;;;4984850;28;20934;-64
2021/03/19 07:22:46;;;;;;;37.53;16.17;;;0.10;98.30;;;;;;4989491;28;20533;-61
2021/03/19 07:25:35;;;;;;;43.30;16.17;;;0.20;98.20;;;;;;4985077;28;20449;-62
2021/03/19 07:28:29;;;;;;;29.03;13.70;;;0.30;97.90;;;;;;4971220;28;20447;-61
2021/03/19 07:31:27;;;;;;;40.80;15.00;;;0.40;97.20;;;;;;4971899;28;20986;-61
2021/03/19 07:34:32;;;;;;;33.33;14.80;;;0.50;97.40;;;;;;4984873;28;20436;-62
2021/03/19 07:37:31;;;;;;;29.90;14.47;;;0.60;97.30;;;;;;4976162;28;20532;-64
2021/03/19 07:40:26;;;;;;;24.30;12.90;;;0.70;97.20;;;;;;4983756;28;20442;-61
2021/03/19 07:43:16;;;;;;;24.80;11.77;;;0.80;96.90;;;;;;4985827;28;20474;-61
2021/03/19 07:46:06;;;;;;;25.93;13.17;;;0.90;96.30;;;;;;4978722;28;20433;-61
2021/03/19 07:49:09;;;;;;;23.87;12.40;;;0.90;96.00;;;;;;4982609;28;20434;-60
2021/03/19 07:51:52;;;;;;;25.90;12.63;;;0.90;95.90;;;;;;4949583;28;21512;-61
2021/03/19 07:54:47;;;;;;;26.80;13.10;;;1.00;96.40;;;;;;4986520;28;20434;-61
2021/03/19 07:57:33;;;;;;;26.67;12.17;;;1.10;96.40;;;;;;4982509;28;20454;-62
2021/03/19 08:00:19;;;;;;;28.93;13.90;;;1.10;96.10;;;;;;4986232;28;20442;-61
2021/03/19 08:03:14;;;;;;;38.20;15.27;;;1.10;96.30;;;;;;4971590;28;21338;-61
2021/03/19 08:05:47;;;;;;;30.50;14.93;;;1.20;96.50;;;;;;4990509;28;20481;-62
2021/03/19 08:08:14;;;;;;;37.17;16.67;;;1.20;96.30;;;;;;4991435;28;20422;-61
2021/03/19 08:10:54;;;;;;;37.80;17.93;;;1.20;96.20;;;;;;4990471;28;20469;-62
2021/03/19 08:13:33;;;;;;;35.37;15.10;;;1.20;95.80;;;;;;4991042;28;20461;-62
2021/03/19 08:16:09;;;;;;;36.10;15.83;;;1.30;96.10;;;;;;4991323;28;20429;-61
2021/03/19 08:19:31;;;;;;;26.23;13.43;;;1.40;96.40;;;;;;4969984;28;20434;-61
2021/03/19 08:22:08;;;;;;;27.20;14.27;;;1.50;96.30;;;;;;4964890;28;20514;-62
2021/03/19 08:24:36;;;;;;;23.90;11.90;;;1.60;96.30;;;;;;4990847;28;20972;-61
2021/03/19 08:27:19;;;;;;;27.20;12.50;;;1.80;96.10;;;;;;4990986;28;20438;-61
2021/03/19 08:29:50;;;;;;;13.00;8.00;;;1.90;94.90;;;;;;4990187;28;20466;-61
2021/03/19 08:32:43;;;;;;;17.90;10.23;;;2.00;94.50;;;;;;4972556;28;20816;-61
2021/03/19 08:35:32;;;;;;;17.40;9.73;;;2.20;94.80;;;;;;4985066;28;20438;-61
2021/03/19 08:38:27;;;;;;;21.60;10.60;;;2.40;94.30;;;;;;4990602;28;20479;-62
2021/03/19 08:41:00;;;;;;;13.83;8.50;;;2.60;94.00;;;;;;4989985;28;20882;-62
2021/03/19 08:43:38;;;;;;;20.27;9.40;;;2.90;93.00;;;;;;4966429;28;20845;-62
2021/03/19 08:46:15;;;;;;;15.20;9.13;;;3.10;92.10;;;;;;4989959;28;20541;-64
2021/03/19 08:48:57;;;;;;;21.63;8.87;;;3.20;90.80;;;;;;4984705;28;20443;-62
2021/03/19 08:51:31;;;;;;;14.87;8.73;;;3.20;90.90;;;;;;4972704;28;20974;-62
2021/03/19 08:54:12;;;;;;;13.53;7.90;;;3.30;91.00;;;;;;4990432;28;20430;-62
2021/03/19 08:56:44;;;;;;;12.87;7.07;;;3.40;90.80;;;;;;4990892;28;20952;-62
2021/03/19 08:59:31;;;;;;;13.57;7.00;;;3.50;90.10;;;;;;4989635;28;20919;-62
2021/03/19 09:01:59;;;;;;;16.20;7.53;;;3.50;89.00;;;;;;4973954;28;20537;-61
2021/03/19 09:04:52;;;;;;;11.80;7.40;;;3.50;86.80;;;;;;4991686;28;20432;-61
2021/03/19 09:07:30;;;;;;;14.20;7.50;;;3.50;85.00;;;;;;4991596;28;20443;-63
2021/03/19 09:10:09;;;;;;;17.37;7.90;;;3.50;85.10;;;;;;4981011;28;20543;-61
2021/03/19 09:13:10;;;;;;;13.33;7.53;;;3.50;85.60;;;;;;4995111;28;20432;-61
2021/03/19 09:15:43;;;;;;;13.30;7.23;;;3.60;85.70;;;;;;4982443;28;20453;-60
2021/03/19 09:18:44;;;;;;;11.87;7.07;;;3.60;83.40;;;;;;4992468;28;20422;-61
2021/03/19 09:21:27;;;;;;;11.43;6.70;;;3.60;82.30;;;;;;4991436;28;20404;-61
2021/03/19 09:23:56;;;;;;;11.60;7.00;;;3.60;82.80;;;;;;4994171;28;20435;-61
2021/03/19 09:26:35;;;;;;;10.73;6.73;;;3.60;82.10;;;;;;4993957;28;20432;-61
2021/03/19 09:29:13;;;;;;;11.23;6.40;;;3.60;79.70;;;;;;4971350;28;20424;-61
2021/03/19 09:32:35;;;;;;;10.07;6.13;;;3.60;80.10;;;;;;4980430;28;20431;-62
2021/03/19 09:35:06;;;;;;;11.43;7.17;;;3.60;79.70;;;;;;4987872;28;20538;-62
2021/03/19 09:37:38;;;;;;;12.93;6.20;;;3.60;81.60;;;;;;4986295;28;20461;-60
2021/03/19 09:40:06;;;;;;;13.90;5.87;;;3.60;80.90;;;;;;4994633;28;20412;-61
2021/03/19 09:42:32;;;;;;;10.73;6.43;;;3.60;81.60;;;;;;4993477;28;20468;-61
2021/03/19 09:45:01;;;;;;;10.73;6.37;;;3.60;80.90;;;;;;4993230;28;21022;-61
2021/03/19 09:47:43;;;;;;;7.83;5.83;;;3.60;78.60;;;;;;4994456;28;20674;-62
2021/03/19 09:50:18;;;;;;;9.80;6.03;;;3.60;77.30;;;;;;4993907;28;20517;-61
2021/03/19 09:53:13;;;;;;;7.53;5.60;;;3.50;75.00;;;;;;4993345;28;20818;-61
2021/03/19 09:55:42;;;;;;;11.30;6.00;;;3.40;73.20;;;;;;4976712;28;20419;-61
2021/03/19 09:58:59;;;;;;;6.00;5.20;;;3.40;70.80;;;;;;4976410;28;20421;-60
2021/03/19 10:01:42;;;;;;;7.10;4.90;;;3.30;69.70;;;;;;4932252;28;20788;-62
2021/03/19 10:04:12;;;;;;;10.13;6.17;;;3.20;71.40;;;;;;4983447;28;20432;-61
2021/03/19 10:06:46;;;;;;;7.30;4.90;;;3.10;73.20;;;;;;4994249;28;20775;-61
2021/03/19 10:09:21;;;;;;;12.63;7.40;;;3.00;75.00;;;;;;4993596;28;20932;-61
2021/03/19 10:11:52;;;;;;;8.20;5.40;;;3.00;75.60;;;;;;4988899;28;20462;-62
2021/03/19 10:14:35;;;;;;;11.13;5.97;;;3.00;77.50;;;;;;4981839;28;20918;-62
2021/03/19 10:17:15;;;;;;;8.57;5.80;;;3.00;78.10;;;;;;4992449;28;20458;-61
2021/03/19 10:19:44;;;;;;;11.33;5.87;;;3.00;77.80;;;;;;4992374;28;20439;-62
2021/03/19 10:22:25;;;;;;;7.43;5.47;;;3.10;76.20;;;;;;4993615;28;20502;-61
2021/03/19 10:24:50;;;;;;;8.43;5.10;;;3.20;74.90;;;;;;4992969;28;20463;-61
2021/03/19 10:27:17;;;;;;;13.90;6.00;;;3.20;74.90;;;;;;4992720;28;20522;-62
2021/03/19 10:29:45;;;;;;;14.57;6.37;;;3.20;74.30;;;;;;4992830;28;20739;-62
2021/03/19 10:32:16;;;;;;;11.77;5.40;;;3.30;74.80;;;;;;4991482;28;20456;-61
2021/03/19 10:34:53;;;;;;;7.50;5.40;;;3.30;75.90;;;;;;4985168;28;20428;-62
2021/03/19 10:37:37;;;;;;;10.03;5.63;;;3.30;75.50;;;;;;4991778;28;20419;-62
2021/03/19 10:40:34;;;;;;;7.90;5.67;;;3.30;76.80;;;;;;4993181;28;20975;-61
2021/03/19 10:43:20;;;;;;;8.00;5.53;;;3.30;78.20;;;;;;4980868;28;20806;-62
2021/03/19 10:46:00;;;;;;;11.50;6.27;;;3.40;79.10;;;;;;4991844;28;20487;-61
2021/03/19 10:48:47;;;;;;;10.03;6.07;;;3.40;82.90;;;;;;4993449;28;20495;-64
2021/03/19 10:51:34;;;;;;;12.20;6.90;;;3.40;86.40;;;;;;4961750;28;20467;-62
2021/03/19 10:54:06;;;;;;;10.93;6.60;;;3.50;87.40;;;;;;4983724;28;20518;-61
2021/03/19 10:56:32;;;;;;;10.13;6.10;;;3.60;86.90;;;;;;4993742;28;20495;-61
2021/03/19 10:59:14;;;;;;;12.10;6.03;;;3.70;85.30;;;;;;4981318;28;20423;-62
2021/03/19 11:01:44;;;;;;;10.70;6.00;;;3.90;84.50;;;;;;4960516;28;20996;-61
2021/03/19 11:04:32;;;;;;;8.07;5.60;;;4.10;80.30;;;;;;4987910;28;20416;-62
2021/03/19 11:07:17;;;;;;;8.20;6.17;;;4.30;76.20;;;;;;4983538;28;20436;-61
2021/03/19 11:10:17;;;;;;;9.80;5.93;;;4.50;73.30;;;;;;4974683;28;20456;-62
2021/03/19 11:13:14;;;;;;;9.87;5.90;;;4.80;74.20;;;;;;4992092;28;20471;-63
2021/03/19 11:15:45;;;;;;;12.17;6.17;;;5.10;70.70;;;;;;4962162;28;20433;-57
2021/03/19 11:18:25;;;;;;;11.10;6.03;;;5.20;64.90;;;;;;4984633;28;20429;-62
2021/03/19 11:21:19;;;;;;;12.90;6.10;;;5.20;61.20;;;;;;4986956;28;20428;-61
2021/03/19 11:24:15;;;;;;;8.37;5.77;;;5.00;57.60;;;;;;4963018;28;20418;-58
2021/03/19 11:26:42;;;;;;;14.77;7.73;;;4.60;64.90;;;;;;4970947;28;20871;-58
2021/03/19 11:29:16;;;;;;;13.00;7.97;;;4.40;72.40;;;;;;4991263;28;20450;-59
2021/03/19 11:32:02;;;;;;;10.03;6.90;;;4.30;77.80;;;;;;4987942;28;20457;-59
2021/03/19 11:34:56;;;;;;;8.80;6.30;;;4.20;81.00;;;;;;4987060;28;20486;-59
2021/03/19 11:37:23;;;;;;;10.63;6.27;;;4.40;81.40;;;;;;4990935;28;20427;-58
2021/03/19 11:40:16;;;;;;;12.47;6.80;;;4.80;76.40;;;;;;4989846;28;20437;-58
2021/03/19 11:42:45;;;;;;;13.00;7.07;;;5.10;70.80;;;;;;4987349;28;20474;-58
2021/03/19 11:45:16;;;;;;;10.40;6.33;;;5.70;69.60;;;;;;4986603;28;20510;-57
2021/03/19 11:47:47;;;;;;;7.73;5.53;;;6.20;60.40;;;;;;4978244;28;20436;-58
2021/03/19 11:50:23;;;;;;;10.90;6.33;;;6.60;57.80;;;;;;4986747;28;20956;-58
2021/03/19 11:52:52;;;;;;;9.17;5.57;;;6.70;54.60;;;;;;4986529;28;20458;-58
2021/03/19 11:55:25;;;;;;;11.37;6.20;;;6.50;54.20;;;;;;4980993;28;20436;-58
2021/03/19 11:57:52;;;;;;;10.87;6.03;;;6.10;54.10;;;;;;4984084;28;20511;-58
2021/03/19 12:00:20;;;;;;;10.13;6.73;;;5.60;54.60;;;;;;4968352;28;20565;-57
2021/03/19 12:02:49;;;;;;;9.83;6.10;;;5.20;59.40;;;;;;4970007;28;20472;-58
2021/03/19 12:05:15;;;;;;;11.83;7.03;;;4.90;68.60;;;;;;4966168;28;20879;-57
2021/03/19 12:07:41;;;;;;;8.87;6.50;;;4.50;81.40;;;;;;4948500;28;20444;-62
2021/03/19 12:10:08;;;;;;;12.67;5.90;;;4.10;85.60;;;;;;4966189;28;20470;-62
2021/03/19 12:12:37;;;;;;;14.43;7.57;;;3.70;89.80;;;;;;4989549;28;20511;-60
2021/03/19 12:15:05;;;;;;;15.40;9.20;;;3.40;91.80;;;;;;4962766;28;20874;-62
2021/03/19 12:17:30;;;;;;;9.90;7.20;;;3.20;93.50;;;;;;4978582;28;20840;-60
2021/03/19 12:19:56;;;;;;;12.00;7.23;;;3.10;94.30;;;;;;4948769;28;20448;-61
2021/03/19 12:22:22;;;;;;;12.97;7.77;;;3.00;95.30;;;;;;4955941;28;20217;-60
2021/03/19 12:24:47;;;;;;;10.73;6.63;;;2.90;96.20;;;;;;4976858;28;20193;-62
2021/03/19 12:27:14;;;;;;;12.27;7.57;;;2.90;97.00;;;;;;4980391;28;20244;-62
2021/03/19 12:29:40;;;;;;;11.57;7.40;;;2.80;97.50;;;;;;4976814;28;20201;-61
2021/03/19 12:32:07;;;;;;;11.23;7.40;;;2.70;97.50;;;;;;4977969;28;20491;-61
2021/03/19 12:34:34;;;;;;;10.57;6.87;;;2.60;97.40;;;;;;4968464;28;20638;-62
2021/03/19 12:37:00;;;;;;;14.60;8.80;;;2.50;97.60;;;;;;4988712;28;20579;-61
2021/03/19 12:39:26;;;;;;;10.40;7.30;;;2.50;97.90;;;;;;4973001;28;20450;-62
2021/03/19 12:41:52;;;;;;;11.20;7.93;;;2.60;98.60;;;;;;4981359;28;20521;-62
2021/03/19 12:44:18;;;;;;;15.00;8.73;;;2.70;98.20;;;;;;4965145;28;20538;-63
2021/03/19 12:46:44;;;;;;;11.53;7.80;;;2.90;98.40;;;;;;4981420;28;20903;-61
2021/03/19 12:49:10;;;;;;;8.97;6.80;;;3.00;98.00;;;;;;4978238;28;20521;-60
2021/03/19 12:51:36;;;;;;;9.60;6.57;;;3.10;97.20;;;;;;4984450;28;20459;-61
2021/03/19 12:54:04;;;;;;;8.50;6.17;;;3.00;96.80;;;;;;4979592;28;20512;-61
2021/03/19 12:56:31;;;;;;;11.33;5.37;;;3.00;97.10;;;;;;4960895;28;20200;-61
2021/03/19 12:58:57;;;;;;;6.67;4.80;;;2.80;96.70;;;;;;4967769;28;20432;-61
2021/03/19 13:01:23;;;;;;;7.00;5.33;;;2.60;97.10;;;;;;4982073;28;20977;-61
2021/03/19 13:03:49;;;;;;;7.10;5.50;;;2.40;97.80;;;;;;4980763;28;20631;-62
2021/03/19 13:06:17;;;;;;;10.47;5.90;;;2.20;98.70;;;;;;4984545;28;22335;-61
2021/03/19 13:08:43;;;;;;;8.43;5.90;;;2.10;99.20;;;;;;4983637;28;20851;-63
2021/03/19 13:11:10;;;;;;;6.70;4.97;;;2.00;99.90;;;;;;4952006;28;20847;-62
2021/03/19 13:13:36;;;;;;;10.23;5.83;;;2.00;99.90;;;;;;4970388;28;20470;-61
2021/03/19 13:16:03;;;;;;;8.67;5.93;;;2.00;99.90;;;;;;4985038;28;20429;-61
2021/03/19 13:18:28;;;;;;;10.30;6.50;;;2.00;99.90;;;;;;4984386;28;20430;-62
2021/03/19 13:20:55;;;;;;;9.90;6.23;;;2.10;99.90;;;;;;4982591;28;20492;-62